« Back
NWS Peachtree City, Ga » Text Product » MCN Terminal Aerodrome Forecast


Printer-friendly Version
Current Version              Previous Versions:   1  2  3  4  5  6  7  8  9  

Terminal Aerodrome Forecast

390
FTUS42 KFFC 230200 AAB
TAFMCN
TAF AMD
KMCN 230256Z 2303/2324 00000KT 1SM BR FEW005
      TEMPO 2303/2307 1/4SM FG VV004
     FM230900 30005KT 3SM BR FEW010
     FM231400 34010KT P6SM FEW035
     FM232100 31007KT P6SM SKC=

USA.gov is the U.S. government's official web portal to all federal, state and local government web resources and services.